Latest Weather Observations for Dalby

IDQ60801

Issued at 9:22 pm EST Friday 20 May 2022 (issued every 10 minutes, with the page automatically refreshed every 10 minutes)

About weather observations | Map of weather stations | Latest weather observations for QLD | Other Formats
Station Details ID: 041522 Name: DALBY AIRPORT Lat: -27.16 Lon: 151.26 Height: 343.9 m
Data from the previous 72 hours. | See also: Recent months at Dalby
Date/Time
EST
Temp
°C
App
Temp
°C
Dew
Point
°C
Rel
Hum
%
Delta-T
°C
Wind Press
QNH
hPa
Press
MSL
hPa
Rain since
9am
mm
Dir  Spd
km/h
Gust
km/h
Spd
kts
Gust
kts
20/09:00pm 14.2 10.9 11.5 84 1.5 ESE 20 28 11 15 1025.5 1024.9 2.6
20/08:30pm 14.4 12.1 11.9 85 1.4 SE 15 19 8 10 1026.0 1025.4 2.2
20/08:00pm 14.5 13.0 12.0 85 1.4 E 11 19 6 10 1025.5 1024.9 1.8
20/07:30pm 14.6 11.4 11.9 84 1.5 ESE 20 28 11 15 1024.8 1024.2 1.8
20/07:00pm 14.6 10.7 12.1 85 1.4 ESE 24 32 13 17 1024.3 1023.7 1.8
20/06:30pm 14.6 9.9 12.1 85 1.4 ESE 28 37 15 20 1024.4 1023.8 1.8
20/06:00pm 14.8 11.0 12.3 85 1.4 ESE 24 30 13 16 1025.1 1024.5 1.2
20/05:30pm 15.1 11.8 12.8 86 1.3 ESE 22 28 12 15 1025.5 1024.9 1.0
20/05:00pm 15.5 13.3 13.2 86 1.3 SE 17 22 9 12 1025.4 1024.8 0.2
20/04:30pm 15.8 13.0 13.3 85 1.4 SE 20 28 11 15 1024.6 1024.0 0.0
20/04:00pm 15.9 11.9 13.0 83 1.6 SE 26 35 14 19 1024.6 1024.0 0.0
20/03:30pm 16.2 11.4 12.9 81 1.9 ESE 30 39 16 21 1023.9 1023.4 0.0
20/03:00pm 17.1 13.0 12.8 76 2.4 ESE 26 37 14 20 1024.1 1023.5 0.0
20/02:30pm 18.0 14.1 12.2 69 3.3 ESE 24 32 13 17 1023.9 1023.4 0.0
20/02:00pm 18.7 13.3 12.2 66 3.7 E 32 39 17 21 1023.7 1023.2 0.0
20/01:30pm 18.4 13.6 11.7 65 3.7 E 28 37 15 20 1023.8 1023.3 0.0
20/01:00pm 18.7 13.6 11.8 64 3.8 ESE 30 39 16 21 1024.1 1023.5 0.0
20/12:30pm 18.7 14.2 11.5 63 4.0 ESE 26 35 14 19 1024.2 1023.6 0.0
20/12:00pm 18.8 13.1 11.1 61 4.2 E 32 41 17 22 1024.3 1023.7 0.0
20/11:30am 18.6 14.3 12.1 66 3.7 ESE 26 35 14 19 1024.6 1024.0 0.0
20/11:00am 18.0 14.8 12.0 68 3.3 ESE 20 30 11 16 1025.0 1024.4 0.0
20/10:30am 17.8 14.2 12.0 69 3.2 SE 22 28 12 15 1025.4 1024.8 0.0
20/10:00am 17.3 13.7 11.8 70 3.0 ESE 22 32 12 17 1025.5 1024.9 0.0
20/09:30am 17.2 12.8 11.7 70 3.1 ESE 26 33 14 18 1025.4 1024.8 0.0
20/09:00am 17.0 13.1 12.1 73 2.7 ESE 24 32 13 17 1025.2 1024.6 0.0
20/08:30am 16.6 12.7 12.2 75 2.5 ESE 24 30 13 16 1025.1 1024.5 0.0
20/08:00am 16.2 12.7 12.2 77 2.2 SE 22 30 12 16 1025.0 1024.4 0.0
20/07:30am 16.0 12.5 12.2 78 2.1 SE 22 32 12 17 1024.6 1024.0 0.0
20/07:00am 15.8 11.9 12.2 79 2.0 SE 24 32 13 17 1024.3 1023.7 0.0
20/06:30am 15.9 12.1 12.3 79 2.0 ESE 24 32 13 17 1023.8 1023.3 0.0
20/06:00am 16.0 12.6 12.4 79 2.0 SE 22 30 12 16 1023.7 1023.2 0.0
20/05:30am 16.0 13.2 12.6 80 1.9 SE 19 26 10 14 1023.3 1022.7 0.0
20/05:00am 15.9 13.1 12.6 81 1.8 ESE 19 26 10 14 1022.8 1022.2 0.0
20/04:30am 15.8 13.8 12.7 82 1.7 SE 15 20 8 11 1022.9 1022.3 0.0
20/04:00am 15.5 13.1 12.6 83 1.6 ESE 17 22 9 12 1022.6 1022.0 0.0
20/03:30am 15.2 13.5 12.5 84 1.5 SE 13 17 7 9 1022.8 1022.2 0.0
20/03:00am 15.5 13.0 12.4 82 1.7 ESE 17 20 9 11 1022.5 1021.9 0.0
20/02:30am 15.8 13.7 12.5 81 1.8 ESE 15 20 8 11 1022.6 1022.0 0.0
20/02:00am 16.1 13.3 12.7 80 1.9 E 19 26 10 14 1022.6 1022.0 0.0
20/01:30am 16.2 13.2 12.7 80 2.0 E 20 26 11 14 1022.6 1022.0 0.0
20/01:00am 16.0 13.3 12.9 82 1.7 E 19 26 10 14 1022.7 1022.1 0.0
20/12:30am 16.2 12.9 12.9 81 1.9 E 22 33 12 18 1022.8 1022.2 0.0
20/12:00am 16.0 14.1 13.1 83 1.6 E 15 17 8 9 1023.3 1022.7 0.0
 
Date/Time
EST
Temp
°C
App
Temp
°C
Dew
Point
°C
Rel
Hum
%
Delta-T
°C
Wind Press
QNH
hPa
Press
MSL
hPa
Rain since
9am
mm
Dir  Spd
km/h
Gust
km/h
Spd
kts
Gust
kts
19/11:30pm 16.0 14.5 13.1 83 1.6 E 13 17 7 9 1023.6 1023.1 0.0
19/11:00pm 16.3 14.5 13.2 82 1.8 E 15 19 8 10 1023.5 1023.0 0.0
19/10:30pm 16.5 14.0 13.4 82 1.8 E 19 24 10 13 1023.5 1023.0 0.0
19/10:00pm 16.5 14.5 13.8 84 1.5 E 17 20 9 11 1023.3 1022.7 0.0
19/09:30pm 16.6 14.7 14.1 85 1.4 E 17 20 9 11 1023.2 1022.6 0.0
19/09:00pm 16.4 14.9 14.1 86 1.3 E 15 19 8 10 1023.2 1022.6 0.0
19/08:30pm 16.1 14.8 13.8 86 1.3 ESE 13 15 7 8 1023.1 1022.5 0.0
19/08:00pm 16.2 15.0 13.9 86 1.3 E 13 17 7 9 1022.8 1022.2 0.0
19/07:30pm 16.6 15.3 13.7 83 1.7 E 13 15 7 8 1022.7 1022.1 0.0
19/07:00pm 16.8 15.5 13.7 82 1.8 E 13 15 7 8 1022.4 1021.8 0.0
19/06:30pm 17.7 16.5 14.0 79 2.1 E 13 13 7 7 1022.0 1021.4 0.0
19/06:00pm 18.5 16.9 14.0 75 2.6 E 15 17 8 9 1021.7 1021.1 0.0
19/05:30pm 19.2 17.6 13.8 71 3.1 E 15 20 8 11 1021.4 1020.8 0.0
19/05:00pm 20.2 18.1 13.6 66 3.8 E 17 20 9 11 1021.2 1020.6 0.0
19/04:30pm 20.9 18.6 13.1 61 4.5 ENE 17 20 9 11 1020.8 1020.2 0.0
19/04:00pm 22.5 20.8 13.6 57 5.2 ENE 15 20 8 11 1020.5 1019.9 0.0
19/03:30pm 22.6 20.3 13.1 55 5.5 E 17 24 9 13 1020.3 1019.7 0.0
19/03:00pm 22.6 20.6 12.8 54 5.7 NE 15 19 8 10 1020.2 1019.6 0.0
19/02:30pm 23.9 22.2 12.5 49 6.6 ENE 13 20 7 11 1020.2 1019.6 0.0
19/02:00pm 23.0 21.6 13.5 55 5.6 NE 13 19 7 10 1020.2 1019.6 0.0
19/01:30pm 23.5 22.1 14.5 57 5.4 ENE 15 20 8 11 1020.3 1019.7 0.0
19/01:00pm 23.1 22.7 14.1 57 5.3 E 9 15 5 8 1020.8 1020.2 0.0
19/12:30pm 21.9 21.6 14.3 62 4.5 E 9 19 5 10 1021.2 1020.6 0.0
19/12:00pm 21.7 21.8 14.4 63 4.3 E 7 13 4 7 1021.8 1021.2 0.0
19/11:30am 20.7 19.1 13.9 65 4.0 E 15 20 8 11 1022.0 1021.4 0.0
19/11:00am 20.2 18.4 13.2 64 4.0 ESE 15 20 8 11 1022.3 1021.7 0.0
19/10:30am 19.2 17.7 13.2 68 3.5 ESE 13 17 7 9 1022.7 1022.1 0.0
19/10:00am 17.8 16.1 12.3 70 3.1 E 13 17 7 9 1022.8 1022.2 0.0
19/09:30am 16.3 15.2 10.6 69 3.1 E 7 9 4 5 1023.2 1022.6 0.0
19/09:00am 14.0 12.3 10.0 77 2.1 ESE 9 11 5 6 1023.0 1022.4 0.0
19/08:30am 12.6 11.4 9.6 82 1.6 SSE 6 9 3 5 1022.6 1022.0 0.0
19/08:00am 10.6 8.9 8.5 87 1.0 ESE 7 9 4 5 1022.6 1022.0 0.0
19/07:30am 9.8 8.6 8.1 89 0.8 E 4 7 2 4 1022.5 1021.9 0.0
19/07:00am 8.8 7.4 7.1 89 0.8 E 4 6 2 3 1022.1 1021.5 0.0
19/06:30am 9.0 8.4 7.5 90 0.7 CALM 0 0 0 0 1021.5 1020.9 0.0
19/06:00am 8.9 8.3 7.4 90 0.7 CALM 0 0 0 0 1021.4 1020.8 0.0
19/05:30am 8.5 6.5 7.0 90 0.7 ENE 7 7 4 4 1021.0 1020.3 0.0
19/05:00am 8.3 7.5 6.6 89 0.8 CALM 0 0 0 0 1020.7 1020.1 0.0
19/04:30am 8.9 8.3 7.2 89 0.8 CALM 0 0 0 0 1021.2 1020.6 0.0
19/04:00am 9.0 7.0 7.3 89 0.8 N 7 9 4 5 1021.2 1020.6 0.0
19/03:30am 9.1 8.5 7.4 89 0.8 CALM 0 0 0 0 1021.1 1020.5 0.0
19/03:00am 9.1 8.5 7.2 88 0.9 CALM 0 0 0 0 1021.1 1020.5 0.0
19/02:30am 9.0 8.3 7.0 87 1.0 CALM 0 2 0 1 1021.2 1020.6 0.0
19/02:00am 9.1 7.1 7.1 87 1.0 NW 7 9 4 5 1021.3 1020.7 0.0
19/01:30am 9.8 9.2 7.4 85 1.2 CALM 0 0 0 0 1021.3 1020.7 0.0
19/01:00am 10.1 9.4 6.8 80 1.6 CALM 0 0 0 0 1021.1 1020.5 0.0
19/12:30am 11.3 10.6 7.0 75 2.1 CALM 0 0 0 0 1021.2 1020.6 0.0
19/12:00am 11.4 9.5 6.9 74 2.2 SSE 6 9 3 5 1021.1 1020.5 0.0
 
Date/Time
EST
Temp
°C
App
Temp
°C
Dew
Point
°C
Rel
Hum
%
Delta-T
°C
Wind Press
QNH
hPa
Press
MSL
hPa
Rain since
9am
mm
Dir  Spd
km/h
Gust
km/h
Spd
kts
Gust
kts
18/11:30pm 12.6 9.9 7.3 70 2.6 SSW 11 15 6 8 1021.7 1021.1 0.0
18/11:00pm 12.8 10.5 7.5 70 2.6 SSW 9 13 5 7 1021.1 1020.5 0.0
18/10:30pm 13.3 11.0 7.5 68 2.9 S 9 15 5 8 1021.2 1020.6 0.0
18/10:00pm 13.7 10.7 7.9 68 2.9 SSW 13 15 7 8 1021.3 1020.7 0.0
18/09:30pm 15.0 11.3 7.8 62 3.7 SSW 17 22 9 12 1021.1 1020.5 0.0
18/09:00pm 15.6 11.6 8.4 62 3.7 SSW 19 24 10 13 1021.3 1020.7 0.0
18/08:30pm 15.9 12.4 8.6 62 3.8 SSW 17 20 9 11 1021.1 1020.5 0.0
18/08:00pm 16.6 12.6 8.1 57 4.4 SSW 19 22 10 12 1020.7 1020.1 0.0
18/07:30pm 17.3 13.7 8.2 55 4.7 SSW 17 24 9 13 1020.4 1019.8 0.0
18/07:00pm 17.3 14.5 8.7 57 4.5 SSW 13 17 7 9 1020.2 1019.6 0.0
18/06:30pm 18.6 15.5 8.8 53 5.2 SSW 15 19 8 10 1019.9 1019.3 0.0
18/06:00pm 19.0 15.9 8.9 52 5.4 SW 15 17 8 9 1019.7 1019.1 0.0
18/05:30pm 19.7 17.5 9.3 51 5.6 SW 11 13 6 7 1019.2 1018.6 0.0
18/05:00pm 21.6 19.4 9.5 46 6.6 SSW 11 15 6 8 1018.9 1018.3 0.0
18/04:30pm 22.9 20.1 8.6 40 7.7 SSW 13 15 7 8 1018.6 1018.0 0.0
18/04:00pm 23.4 20.4 7.9 37 8.3 SSW 13 17 7 9 1018.4 1017.7 0.0
18/03:30pm 23.8 23.3 12.8 50 6.4 WSW 7 13 4 7 1018.2 1017.5 0.0
18/03:00pm 23.7 23.3 12.4 49 6.5 SW 6 13 3 7 1018.2 1017.5 0.0
18/02:30pm 22.9 21.6 12.5 52 6.0 SSW 11 19 6 10 1018.3 1017.6 0.0
18/02:00pm 22.6 21.9 13.1 55 5.5 SSW 9 15 5 8 1018.5 1017.8 0.0
18/01:30pm 21.4 20.7 14.3 64 4.2 SW 11 13 6 7 1018.7 1018.1 0.0
18/01:00pm 22.1 21.9 14.7 63 4.4 SW 9 15 5 8 1018.9 1018.3 0.0
18/12:30pm 21.6 21.9 15.0 66 4.0 SW 7 15 4 8 1019.3 1018.7 0.0
18/12:00pm 22.0 23.3 15.1 65 4.1 WSW 2 7 1 4 1019.8 1019.2 0.0
18/11:30am 20.8 21.0 14.7 68 3.6 SSW 7 11 4 6 1020.1 1019.5 0.0
18/11:00am 19.7 19.4 13.2 66 3.7 WSW 7 9 4 5 1020.8 1020.2 0.0
18/10:30am 19.1 18.6 12.8 67 3.6 WSW 7 9 4 5 1021.3 1020.7 0.0
18/10:00am 18.3 17.7 11.6 65 3.7 SW 6 9 3 5 1021.4 1020.8 0.0
18/09:30am 17.5 17.9 11.1 66 3.5 CALM 0 0 0 0 1021.4 1020.8 0.0
18/09:00am 17.0 15.6 10.8 67 3.4 E 9 11 5 6 1021.0 1020.3 0.0
18/08:30am 16.7 16.9 10.5 67 3.4 CALM 0 6 0 3 1020.7 1020.1 0.0
18/08:00am 15.4 13.2 9.5 68 3.1 SW 11 15 6 8 1020.6 1020.0 0.0
18/07:30am 15.2 13.4 9.6 69 2.9 SW 9 15 5 8 1020.6 1020.0 0.0
18/07:00am 14.9 12.7 9.5 70 2.8 SSW 11 17 6 9 1020.3 1019.7 0.0
18/06:30am 14.8 12.1 9.0 68 3.0 S 13 15 7 8 1020.0 1019.4 0.0
18/06:00am 14.7 12.6 9.9 73 2.5 SSW 11 13 6 7 1019.6 1019.0 0.0
18/05:30am 14.7 13.6 10.5 76 2.2 SW 7 11 4 6 1019.4 1018.8 0.0
18/05:00am 14.7 13.7 10.3 75 2.3 S 6 9 3 5 1018.9 1018.3 0.0
18/04:30am 14.7 13.4 11.1 79 1.9 SW 9 11 5 6 1018.7 1018.1 0.0
18/04:00am 14.4 14.8 11.2 81 1.7 CALM 0 0 0 0 1018.5 1017.8 0.0
18/03:30am 14.4 13.2 10.4 77 2.1 SW 7 9 4 5 1018.6 1018.0 0.0
18/03:00am 14.2 14.3 10.0 76 2.2 CALM 0 0 0 0 1018.8 1018.2 0.0
18/02:30am 13.8 13.3 10.8 82 1.6 W 4 7 2 4 1018.7 1018.1 0.0
18/02:00am 13.4 12.2 9.6 78 2.0 SSW 6 9 3 5 1018.9 1018.3 0.0
18/01:30am 13.5 12.1 9.7 78 2.0 SW 7 9 4 5 1019.2 1018.6 0.0
18/01:00am 13.2 13.1 9.5 78 1.9 CALM 0 0 0 0 1019.6 1019.0 0.0
18/12:30am 14.1 12.6 9.3 73 2.5 S 7 11 4 6 1019.8 1019.2 0.0
18/12:00am 14.3 12.5 9.3 72 2.6 S 9 13 5 7 1020.1 1019.5 0.0
 
Date/Time
EST
Temp
°C
App
Temp
°C
Dew
Point
°C
Rel
Hum
%
Delta-T
°C
Wind Press
QNH
hPa
Press
MSL
hPa
Rain since
9am
mm
Dir  Spd
km/h
Gust
km/h
Spd
kts
Gust
kts
17/11:30pm 14.8 12.7 9.6 71 2.7 S 11 15 6 8 1020.1 1019.5 0.0
17/11:00pm 13.3 11.7 10.3 82 1.6 ESE 9 11 5 6 1019.9 1019.3 0.0
17/10:30pm 13.9 11.8 9.9 77 2.1 E 11 13 6 7 1020.3 1019.7 0.0
17/10:00pm 16.0 13.4 9.2 64 3.6 S 13 17 7 9 1019.9 1019.3 0.0
17/09:30pm 16.3 14.4 9.0 62 3.8 S 9 13 5 7 1019.8 1019.2 0.0

Other formats

Comma delimited format used in spreadsheet applications
http://www.bom.gov.au/fwo/IDQ60801/IDQ60801.94542.axf

JavaScript Object Notation format (JSON) in row-major order
http://www.bom.gov.au/fwo/IDQ60801/IDQ60801.94542.json

Data quality

Most of these data are generated automatically and are frequently updated. Quality checks on data are not normally performed. It is possible for incorrect values to appear. Refer to information at About Latest Weather Observations and please check the disclaimer before using these data.